createdAt,value
2023-02-06T00:00:04.313Z,446
2023-02-06T00:01:06.832Z,445.7
2023-02-06T00:02:09.242Z,445.9
2023-02-06T00:03:11.785Z,445.5
2023-02-06T00:04:14.018Z,445.6
2023-02-06T00:05:16.789Z,446.5
2023-02-06T00:06:19.169Z,446.1
2023-02-06T00:07:21.649Z,445.9
2023-02-06T00:08:24.205Z,445.7
2023-02-06T00:09:26.757Z,445.3
2023-02-06T00:10:29.017Z,445.5
2023-02-06T00:11:31.522Z,445.2
2023-02-06T00:12:34.018Z,445.6
2023-02-06T00:13:36.563Z,445.2
2023-02-06T00:14:39.054Z,445.5
2023-02-06T00:15:41.492Z,445.5
2023-02-06T00:16:43.711Z,445.5
2023-02-06T00:17:46.220Z,445.3
2023-02-06T00:18:48.174Z,445.4
2023-02-06T00:19:50.390Z,445.4
2023-02-06T00:20:52.613Z,445.7
2023-02-06T00:21:55.108Z,445.9
2023-02-06T00:22:57.630Z,445.4
2023-02-06T00:24:00.238Z,445.5
2023-02-06T00:25:02.802Z,445.5
2023-02-06T00:26:05.302Z,444.8
2023-02-06T00:27:07.219Z,444.7
2023-02-06T00:28:10.169Z,444.9
2023-02-06T00:29:12.668Z,444.7
2023-02-06T00:30:15.173Z,444.3
2023-02-06T00:31:18.558Z,444.3
2023-02-06T00:32:21.037Z,444.6
2023-02-06T00:33:23.555Z,444.1
2023-02-06T00:34:26.097Z,444
2023-02-06T00:35:28.590Z,444.2
2023-02-06T00:36:31.137Z,444.5
2023-02-06T00:37:33.075Z,444.6
2023-02-06T00:38:35.285Z,444.5
2023-02-06T00:39:37.692Z,444
2023-02-06T00:40:40.338Z,444.3
2023-02-06T00:41:42.827Z,444.3
2023-02-06T00:42:45.039Z,444.6
2023-02-06T00:43:47.560Z,444.5
2023-02-06T00:44:49.783Z,444.5
2023-02-06T00:45:52.271Z,444.2
2023-02-06T00:46:54.513Z,444.4
2023-02-06T00:47:56.724Z,444.2
2023-02-06T00:48:59.219Z,444.4
2023-02-06T00:50:01.762Z,443.8
2023-02-06T00:51:04.284Z,444
2023-02-06T00:52:06.807Z,444.3
2023-02-06T00:53:09.310Z,444.1
2023-02-06T00:54:11.532Z,444.6
2023-02-06T00:55:13.815Z,444.4
2023-02-06T00:56:16.356Z,444.4
2023-02-06T00:57:18.838Z,444.5
2023-02-06T00:58:21.328Z,444.3
2023-02-06T00:59:23.583Z,444.5
2023-02-06T01:00:25.823Z,444.2
2023-02-06T01:01:28.661Z,444.4
2023-02-06T01:02:31.054Z,444.3
2023-02-06T01:03:33.590Z,444.2
2023-02-06T01:04:36.125Z,444.2
2023-02-06T01:05:40.067Z,444
2023-02-06T01:06:41.704Z,443.7
2023-02-06T01:07:44.192Z,443.5
2023-02-06T01:08:46.459Z,443.8
2023-02-06T01:09:48.945Z,443.7
2023-02-06T01:10:51.505Z,443.5
2023-02-06T01:11:53.207Z,443.1
2023-02-06T01:12:55.712Z,443
2023-02-06T01:13:58.207Z,443.1
2023-02-06T01:15:00.719Z,442.4
2023-02-06T01:16:03.379Z,442.6
2023-02-06T01:17:05.636Z,442.5
2023-02-06T01:18:08.141Z,442.4
2023-02-06T01:19:10.858Z,442.4
2023-02-06T01:20:13.357Z,442.7
2023-02-06T01:21:15.883Z,442.8
2023-02-06T01:22:18.380Z,442.8
2023-02-06T01:23:20.945Z,443
2023-02-06T01:24:23.204Z,443.2
2023-02-06T01:25:25.710Z,443.2
2023-02-06T01:27:34.293Z,443.3
2023-02-06T01:28:36.499Z,443.4
2023-02-06T01:29:39.010Z,443.4
2023-02-06T01:30:41.262Z,443.6
2023-02-06T01:31:43.833Z,443.3
2023-02-06T01:32:46.337Z,443.3
2023-02-06T01:33:48.846Z,443.3
2023-02-06T01:34:51.396Z,443.4
2023-02-06T01:35:53.898Z,443.9
2023-02-06T01:36:56.424Z,443.4
2023-02-06T01:37:58.945Z,443.5
2023-02-06T01:39:01.472Z,443.4
2023-02-06T01:40:03.734Z,443.5
2023-02-06T01:41:05.961Z,443.4
2023-02-06T01:42:08.476Z,442.9
2023-02-06T01:43:11.041Z,443.1
2023-02-06T01:44:13.627Z,443.3
2023-02-06T01:45:15.831Z,443.1
2023-02-06T01:46:18.564Z,443.7
2023-02-06T01:47:21.090Z,443.8
2023-02-06T01:48:23.589Z,443.4
2023-02-06T01:49:26.102Z,443.2
2023-02-06T01:50:28.652Z,443.4
2023-02-06T01:51:31.177Z,443.3
2023-02-06T01:52:33.524Z,443.5
2023-02-06T01:53:35.728Z,443.3
2023-02-06T01:54:37.940Z,443.2
2023-02-06T01:55:40.669Z,443.3
2023-02-06T01:56:43.190Z,443.4
2023-02-06T01:57:45.697Z,443.6
2023-02-06T01:58:47.716Z,443.9
2023-02-06T01:59:50.211Z,444
2023-02-06T02:00:53.204Z,444.1
2023-02-06T02:01:55.901Z,443.6
2023-02-06T02:02:58.424Z,444.4
2023-02-06T02:04:00.915Z,444.2
2023-02-06T02:05:03.158Z,444.1
2023-02-06T02:06:05.653Z,444.6
2023-02-06T02:07:08.191Z,444.3
2023-02-06T02:08:10.712Z,444.7
2023-02-06T02:09:15.889Z,444.7
2023-02-06T02:10:18.104Z,444.6
2023-02-06T02:11:20.583Z,445.2
2023-02-06T02:12:22.814Z,445.1
2023-02-06T02:13:25.058Z,445.2
2023-02-06T02:14:27.619Z,444.8
2023-02-06T02:15:30.113Z,445.3
2023-02-06T02:16:32.562Z,445.6
2023-02-06T02:17:34.566Z,445.7
2023-02-06T02:18:37.078Z,445.8
2023-02-06T02:19:39.590Z,445.7
2023-02-06T02:20:41.509Z,445.2
2023-02-06T02:21:43.729Z,445.3
2023-02-06T02:22:45.951Z,445.3
2023-02-06T02:23:48.496Z,445.3
2023-02-06T02:24:50.735Z,445.4
2023-02-06T02:25:53.235Z,445.3
2023-02-06T02:26:55.728Z,445.1
2023-02-06T02:27:58.124Z,444.9
2023-02-06T02:29:00.681Z,444.8
2023-02-06T02:30:03.275Z,444.8
2023-02-06T02:31:05.885Z,444.7
2023-02-06T02:32:08.153Z,444.7
2023-02-06T02:33:10.386Z,444.1
2023-02-06T02:34:12.897Z,444
2023-02-06T02:35:15.431Z,444.3
2023-02-06T02:36:17.655Z,444.1
2023-02-06T02:37:20.141Z,444.7
2023-02-06T02:38:22.643Z,444.7
2023-02-06T02:39:25.171Z,445.1
2023-02-06T02:40:26.833Z,445.6
2023-02-06T02:41:29.339Z,446.1
2023-02-06T02:42:31.836Z,446.2
2023-02-06T02:43:34.431Z,446.3
2023-02-06T02:44:36.969Z,446.5
2023-02-06T02:45:40.698Z,446.6
2023-02-06T02:46:43.234Z,447
2023-02-06T02:47:45.742Z,447
2023-02-06T02:48:48.244Z,446.9
2023-02-06T02:49:50.200Z,446.5
2023-02-06T02:50:52.695Z,446.4
2023-02-06T02:51:55.184Z,446.1
2023-02-06T02:52:57.704Z,446.3
2023-02-06T02:54:00.192Z,446.3
2023-02-06T02:55:02.717Z,446.5
2023-02-06T02:56:05.205Z,446.4
2023-02-06T02:57:07.432Z,446.3
2023-02-06T02:58:09.656Z,446.5
2023-02-06T02:59:12.141Z,446.6
2023-02-06T03:00:14.648Z,446.5
2023-02-06T03:01:17.666Z,446.2
2023-02-06T03:02:20.551Z,445.8
2023-02-06T03:03:23.082Z,446.6
2023-02-06T03:04:25.600Z,446
2023-02-06T03:05:27.817Z,446.1
2023-02-06T03:06:30.029Z,445.8
2023-02-06T03:07:32.545Z,445.4
2023-02-06T03:08:35.029Z,445.5
2023-02-06T03:09:37.522Z,446
2023-02-06T03:10:39.761Z,445.9
2023-02-06T03:11:41.975Z,445.9
2023-02-06T03:12:44.467Z,446.1
2023-02-06T03:13:46.668Z,446.1
2023-02-06T03:14:49.159Z,445.7
2023-02-06T03:15:51.173Z,445.6
2023-02-06T03:16:53.754Z,445.7
2023-02-06T03:17:56.248Z,445.2
2023-02-06T03:18:58.732Z,445.5
2023-02-06T03:20:00.946Z,445.6
2023-02-06T03:21:03.440Z,445.4
2023-02-06T03:22:05.943Z,445.5
2023-02-06T03:23:08.467Z,445.5
2023-02-06T03:24:10.967Z,445.4
2023-02-06T03:25:13.453Z,445.4
2023-02-06T03:26:15.753Z,445.8
2023-02-06T03:27:18.233Z,445.7
2023-02-06T03:28:20.920Z,445.3
2023-02-06T03:29:23.407Z,445.2
2023-02-06T03:30:25.945Z,444.8
2023-02-06T03:31:28.824Z,444.7
2023-02-06T03:32:31.196Z,444.1
2023-02-06T03:33:33.717Z,444.1
2023-02-06T03:34:35.631Z,444.4
2023-02-06T03:35:39.158Z,444.5
2023-02-06T03:36:41.382Z,444
2023-02-06T03:37:43.935Z,444.5
2023-02-06T03:38:46.420Z,444.1
2023-02-06T03:39:48.912Z,444.2
2023-02-06T03:40:50.850Z,443.5
2023-02-06T03:41:53.230Z,443.5
2023-02-06T03:42:55.775Z,443.8
2023-02-06T03:43:57.703Z,443.5
2023-02-06T03:44:59.623Z,443.4
2023-02-06T03:46:02.901Z,444
2023-02-06T03:47:05.428Z,443.4
2023-02-06T03:48:08.079Z,443.2
2023-02-06T03:49:10.558Z,443
2023-02-06T03:50:12.795Z,442.6
2023-02-06T03:51:15.293Z,442.3
2023-02-06T03:52:17.223Z,442.3
2023-02-06T03:53:19.439Z,442.3
2023-02-06T03:54:21.660Z,442
2023-02-06T03:55:24.182Z,442.2
2023-02-06T03:56:26.689Z,442.1
2023-02-06T03:57:29.341Z,441.7
2023-02-06T03:58:31.312Z,442.1
2023-02-06T03:59:33.002Z,441.7
2023-02-06T04:00:35.377Z,441.6
2023-02-06T04:01:37.920Z,441.7
2023-02-06T04:02:40.811Z,441.7
2023-02-06T04:03:43.394Z,441.8
2023-02-06T04:04:45.892Z,441.6
2023-02-06T04:05:48.395Z,441.5
2023-02-06T04:06:50.608Z,441.4
2023-02-06T04:07:53.145Z,441.6
2023-02-06T04:08:55.657Z,441.8
2023-02-06T04:09:58.174Z,441.6
2023-02-06T04:11:00.116Z,441.6
2023-02-06T04:12:02.641Z,441.5
2023-02-06T04:13:05.207Z,441.9
2023-02-06T04:14:07.426Z,441.6
2023-02-06T04:15:09.903Z,442
2023-02-06T04:16:12.610Z,441.5
2023-02-06T04:18:20.106Z,441.8
2023-02-06T04:19:22.396Z,441.8
2023-02-06T04:20:24.911Z,442.1
2023-02-06T04:21:26.843Z,442
2023-02-06T04:22:29.329Z,442.4
2023-02-06T04:23:31.895Z,442.4
2023-02-06T04:24:34.404Z,442.6
2023-02-06T04:25:38.593Z,442.7
2023-02-06T04:26:41.220Z,442.6
2023-02-06T04:27:43.939Z,442.9
2023-02-06T04:28:46.192Z,442.9
2023-02-06T04:29:48.740Z,443.5
2023-02-06T04:30:51.649Z,443.5
2023-02-06T04:31:54.174Z,443.4
2023-02-06T04:32:56.672Z,443.1
2023-02-06T04:33:58.942Z,443.3
2023-02-06T04:35:01.586Z,443.7
2023-02-06T04:36:04.098Z,444.2
2023-02-06T04:37:06.598Z,444.2
2023-02-06T04:38:09.094Z,444.4
2023-02-06T04:39:12.176Z,444
2023-02-06T04:40:14.842Z,444.1
2023-02-06T04:41:17.380Z,444.5
2023-02-06T04:42:19.918Z,444.5
2023-02-06T04:43:22.449Z,444.9
2023-02-06T04:44:24.984Z,445.3
2023-02-06T04:45:27.235Z,445.5
2023-02-06T04:46:29.770Z,445.6
2023-02-06T04:47:32.301Z,445.9
2023-02-06T04:48:34.535Z,446.1
2023-02-06T04:49:37.071Z,445.9
2023-02-06T04:50:39.681Z,445.6
2023-02-06T04:51:41.924Z,445.6
2023-02-06T04:52:44.150Z,445.2
2023-02-06T04:53:46.640Z,445.2
2023-02-06T04:54:49.158Z,445.3
2023-02-06T04:55:51.391Z,445.2
2023-02-06T04:56:53.877Z,445
2023-02-06T04:57:56.370Z,445.2
2023-02-06T04:58:58.596Z,445.3
2023-02-06T05:00:01.193Z,444.8
2023-02-06T05:01:03.721Z,444.4
2023-02-06T05:02:05.956Z,444.5
2023-02-06T05:03:08.180Z,444
2023-02-06T05:04:10.436Z,444.1
2023-02-06T05:05:12.690Z,444.2
2023-02-06T05:06:15.247Z,444.4
2023-02-06T05:07:17.762Z,444.3
2023-02-06T05:08:19.985Z,444.7
2023-02-06T05:09:22.328Z,444.3
2023-02-06T05:10:24.871Z,444.1
2023-02-06T05:11:27.089Z,443.7
2023-02-06T05:12:29.309Z,444.1
2023-02-06T05:13:31.519Z,444.2
2023-02-06T05:14:33.741Z,444.9
2023-02-06T05:15:37.970Z,444.7
2023-02-06T05:16:40.635Z,444.7
2023-02-06T05:17:42.590Z,444.3
2023-02-06T05:18:45.093Z,444.3
2023-02-06T05:19:47.611Z,444.1
2023-02-06T05:20:50.122Z,443.7
2023-02-06T05:21:52.760Z,444
2023-02-06T05:22:55.246Z,444.6
2023-02-06T05:23:57.744Z,444.6
2023-02-06T05:24:59.965Z,445
2023-02-06T05:26:02.197Z,445.3
2023-02-06T05:27:04.733Z,445.7
2023-02-06T05:28:08.436Z,445.1
2023-02-06T05:29:11.207Z,445.3
2023-02-06T05:30:13.438Z,445.4
2023-02-06T05:31:16.377Z,445.4
2023-02-06T05:32:18.620Z,445.6
2023-02-06T05:33:20.858Z,445.8
2023-02-06T05:34:23.066Z,446
2023-02-06T05:35:25.602Z,446.2
2023-02-06T05:36:28.140Z,446.3
2023-02-06T05:37:30.708Z,446.7
2023-02-06T05:38:32.924Z,446.6
2023-02-06T05:39:34.863Z,446.8
2023-02-06T05:40:36.810Z,447
2023-02-06T05:41:39.305Z,447.2
2023-02-06T05:42:41.812Z,447.3
2023-02-06T05:43:44.324Z,447.3
2023-02-06T05:44:46.827Z,447.5
2023-02-06T05:45:49.053Z,447.3
2023-02-06T05:46:51.595Z,447
2023-02-06T05:47:54.282Z,446.5
2023-02-06T05:48:56.252Z,447.3
2023-02-06T05:49:58.780Z,446.9
2023-02-06T05:51:01.022Z,447.1
2023-02-06T05:52:03.582Z,447.3
2023-02-06T05:53:06.154Z,447.1
2023-02-06T05:54:08.410Z,446.6
2023-02-06T05:55:10.086Z,447.1
2023-02-06T05:56:12.322Z,446.9
2023-02-06T05:57:14.821Z,447.4
2023-02-06T05:58:17.302Z,447.7
2023-02-06T05:59:19.806Z,447.7
2023-02-06T06:00:22.036Z,448
2023-02-06T06:01:24.288Z,447.7
2023-02-06T06:02:26.789Z,447.3
2023-02-06T06:03:30.322Z,447
2023-02-06T06:04:33.745Z,447.2
2023-02-06T06:05:37.890Z,447.4
2023-02-06T06:06:40.474Z,447.4
2023-02-06T06:07:42.748Z,447.6
2023-02-06T06:08:45.327Z,447.5
2023-02-06T06:09:47.823Z,448.3
2023-02-06T06:10:50.341Z,448
2023-02-06T06:11:52.834Z,448
2023-02-06T06:12:55.327Z,448
2023-02-06T06:13:57.257Z,447.7
2023-02-06T06:14:58.906Z,447.9
2023-02-06T06:16:01.377Z,447.5
2023-02-06T06:17:03.609Z,448.1
2023-02-06T06:18:05.909Z,447.7
2023-02-06T06:19:08.408Z,447.6
2023-02-06T06:20:10.661Z,447.4
2023-02-06T06:21:13.222Z,447.4
2023-02-06T06:22:15.434Z,447.4
2023-02-06T06:23:17.479Z,447.7
2023-02-06T06:24:19.759Z,447.9
2023-02-06T06:25:22.255Z,447.9
2023-02-06T06:26:24.760Z,447.4
2023-02-06T06:27:26.984Z,447.3
2023-02-06T06:28:29.189Z,446.9
2023-02-06T06:29:31.140Z,447
2023-02-06T06:31:39.555Z,447.1
2023-02-06T06:32:42.115Z,446.6
2023-02-06T06:33:44.719Z,446.2
2023-02-06T06:34:47.234Z,446.5
2023-02-06T06:35:49.451Z,446.4
2023-02-06T06:36:52.343Z,447
2023-02-06T06:37:55.344Z,446.4
2023-02-06T06:38:58.073Z,446.8
2023-02-06T06:40:00.372Z,446.9
2023-02-06T06:41:02.895Z,447.1
2023-02-06T06:42:05.423Z,446.8
2023-02-06T06:43:07.948Z,447
2023-02-06T06:44:10.158Z,447.4
2023-02-06T06:45:12.404Z,447.6
2023-02-06T06:46:14.337Z,447.3
2023-02-06T06:47:16.567Z,447.3
2023-02-06T06:48:18.806Z,447.4
2023-02-06T06:49:21.080Z,447.3
2023-02-06T06:50:23.611Z,446.9
2023-02-06T06:51:26.107Z,446.6
2023-02-06T06:52:28.403Z,446.2
2023-02-06T06:53:30.340Z,446.3
2023-02-06T06:54:32.313Z,446.3
2023-02-06T06:55:35.568Z,445.9
2023-02-06T06:56:38.196Z,446.1
2023-02-06T06:57:40.434Z,446.3
2023-02-06T06:58:42.704Z,446.4
2023-02-06T06:59:44.933Z,446.6
2023-02-06T07:00:47.730Z,447.2
2023-02-06T07:01:50.242Z,447.3
2023-02-06T07:02:52.929Z,446.9
2023-02-06T07:03:55.456Z,446.9
2023-02-06T07:04:58.064Z,447.1
2023-02-06T07:06:00.326Z,446.2
2023-02-06T07:07:03.371Z,446.5
2023-02-06T07:08:05.619Z,446.6
2023-02-06T07:09:07.551Z,446.8
2023-02-06T07:10:10.211Z,446.5
2023-02-06T07:11:12.683Z,446.3
2023-02-06T07:12:15.189Z,446.4
2023-02-06T07:13:17.675Z,446.2
2023-02-06T07:14:19.637Z,446.1
2023-02-06T07:15:21.597Z,446.7
2023-02-06T07:16:24.348Z,446.2
2023-02-06T07:17:26.620Z,446.1
2023-02-06T07:18:29.118Z,446
2023-02-06T07:19:31.644Z,446.2
2023-02-06T07:20:34.185Z,446.4
2023-02-06T07:21:36.687Z,446.6
2023-02-06T07:22:39.246Z,446.8
2023-02-06T07:23:41.798Z,447.2
2023-02-06T07:24:43.748Z,447
2023-02-06T07:25:46.340Z,446.8
2023-02-06T07:26:48.931Z,446.6
2023-02-06T07:27:51.705Z,446.2
2023-02-06T07:28:54.312Z,446.3
2023-02-06T07:29:56.532Z,445.9
2023-02-06T07:30:59.327Z,446.3
2023-02-06T07:32:02.044Z,446.3
2023-02-06T07:33:04.083Z,446.4
2023-02-06T07:34:06.570Z,446.2
2023-02-06T07:35:08.832Z,445.7
2023-02-06T07:36:11.371Z,445.7
2023-02-06T07:37:13.611Z,445.5
2023-02-06T07:38:16.162Z,445.9
2023-02-06T07:39:18.406Z,446
2023-02-06T07:40:20.650Z,446
2023-02-06T07:41:23.240Z,446.5
2023-02-06T07:42:25.546Z,446
2023-02-06T07:43:27.754Z,446.1
2023-02-06T07:44:30.258Z,446.3
2023-02-06T07:45:32.232Z,445.8
2023-02-06T07:46:34.735Z,446.1
2023-02-06T07:47:36.978Z,445.9
2023-02-06T07:48:39.495Z,445.7
2023-02-06T07:49:41.723Z,446.1
2023-02-06T07:50:44.225Z,445.5
2023-02-06T07:51:46.778Z,445.7
2023-02-06T07:52:49.395Z,445.6
2023-02-06T07:53:51.491Z,445.7
2023-02-06T07:54:54.287Z,445.7
2023-02-06T07:55:56.512Z,445.4
2023-02-06T07:56:59.093Z,445.8
2023-02-06T07:58:01.424Z,445.6
2023-02-06T07:59:03.950Z,445
2023-02-06T08:00:06.469Z,445
2023-02-06T08:01:09.347Z,444.7
2023-02-06T08:02:11.885Z,445.2
2023-02-06T08:03:13.929Z,444.3
2023-02-06T08:04:15.951Z,444.8
2023-02-06T08:05:18.509Z,444.8
2023-02-06T08:06:22.180Z,444.3
2023-02-06T08:07:27.245Z,444.1
2023-02-06T08:08:29.487Z,443.3
2023-02-06T08:09:31.758Z,443.1
2023-02-06T08:10:33.972Z,443.3
2023-02-06T08:11:35.930Z,443.2
2023-02-06T08:12:38.507Z,442.7
2023-02-06T08:13:41.107Z,442.5
2023-02-06T08:14:43.615Z,442.5
2023-02-06T08:15:46.149Z,442.7
2023-02-06T08:16:48.329Z,442.7
2023-02-06T08:17:50.654Z,442.5
2023-02-06T08:18:52.896Z,442.8
2023-02-06T08:19:55.486Z,442.7
2023-02-06T08:20:57.454Z,442.9
2023-02-06T08:21:59.671Z,442.9
2023-02-06T08:23:02.197Z,443.1
2023-02-06T08:24:04.419Z,443.2
2023-02-06T08:25:06.917Z,442.9
2023-02-06T08:26:09.157Z,442.8
2023-02-06T08:27:11.658Z,442.6
2023-02-06T08:28:14.054Z,443.2
2023-02-06T08:29:16.397Z,443.3
2023-02-06T08:30:18.364Z,443.7
2023-02-06T08:31:21.268Z,443.5
2023-02-06T08:32:23.817Z,443.2
2023-02-06T08:33:26.311Z,443
2023-02-06T08:34:28.851Z,443.2
2023-02-06T08:35:31.070Z,442.9
2023-02-06T08:36:33.624Z,442.7
2023-02-06T08:37:35.849Z,443
2023-02-06T08:38:37.831Z,442.7
2023-02-06T08:39:39.805Z,442.9
2023-02-06T08:40:42.300Z,442.9
2023-02-06T08:41:44.822Z,443.5
2023-02-06T08:42:47.323Z,443.1
2023-02-06T08:43:49.911Z,443.1
2023-02-06T08:44:52.674Z,443.1
2023-02-06T08:45:55.339Z,442.9
2023-02-06T08:48:02.848Z,442.7
2023-02-06T08:49:05.125Z,442.2
2023-02-06T08:50:07.405Z,441.9
2023-02-06T08:51:09.634Z,441.7
2023-02-06T08:52:11.865Z,442.2
2023-02-06T08:53:14.101Z,442.3
2023-02-06T08:54:16.848Z,442.2
2023-02-06T08:56:25.815Z,442.5
2023-02-06T08:57:28.609Z,442.2
2023-02-06T08:58:31.180Z,442.2
2023-02-06T08:59:33.152Z,442.3
2023-02-06T09:00:35.659Z,442
2023-02-06T09:01:38.603Z,442.2
2023-02-06T09:02:41.515Z,442.5
2023-02-06T09:03:43.789Z,442.8
2023-02-06T09:04:46.068Z,443.1
2023-02-06T09:05:48.589Z,443.2
2023-02-06T09:06:51.289Z,443.3
2023-02-06T09:07:53.791Z,442.9
2023-02-06T09:08:55.721Z,443.1
2023-02-06T09:09:58.248Z,443.1
2023-02-06T09:11:00.162Z,442.5
2023-02-06T09:12:02.466Z,443
2023-02-06T09:13:04.705Z,442.8
2023-02-06T09:14:06.968Z,443.4
2023-02-06T09:15:09.510Z,442.6
2023-02-06T09:16:12.538Z,442.9
2023-02-06T09:17:15.098Z,443.4
2023-02-06T09:18:17.339Z,443.5
2023-02-06T09:19:19.299Z,443.9
2023-02-06T09:20:21.749Z,443.5
2023-02-06T09:21:23.978Z,444
2023-02-06T09:22:26.480Z,444.1
2023-02-06T09:23:28.719Z,444.3
2023-02-06T09:24:31.315Z,444.1
2023-02-06T09:25:34.076Z,444.1
2023-02-06T09:26:42.678Z,443.6
2023-02-06T09:27:44.983Z,443.2
2023-02-06T09:28:47.297Z,443.1
2023-02-06T09:29:49.839Z,442.8
2023-02-06T09:30:53.061Z,443.2
2023-02-06T09:31:55.736Z,443.1
2023-02-06T09:32:58.242Z,443.1
2023-02-06T09:34:00.218Z,442.4
2023-02-06T09:35:02.708Z,442.4
2023-02-06T09:36:04.946Z,442.8
2023-02-06T09:37:06.349Z,442.9
2023-02-06T09:38:08.856Z,443.3
2023-02-06T09:39:11.116Z,442.9
2023-02-06T09:40:13.340Z,443
2023-02-06T09:41:15.870Z,443.4
2023-02-06T09:42:18.385Z,443.2
2023-02-06T09:43:20.714Z,443.5
2023-02-06T09:44:22.955Z,442.9
2023-02-06T09:45:25.166Z,442.7
2023-02-06T09:46:28.095Z,442.7
2023-02-06T09:47:30.832Z,442.6
2023-02-06T09:48:33.337Z,442.4
2023-02-06T09:49:35.882Z,441.9
2023-02-06T09:50:38.392Z,442.6
2023-02-06T09:51:40.636Z,442.4
2023-02-06T09:52:42.898Z,442.5
2023-02-06T09:53:45.395Z,442.9
2023-02-06T09:54:47.894Z,442.8
2023-02-06T09:55:50.117Z,443.4
2023-02-06T09:56:52.676Z,443.1
2023-02-06T09:57:55.189Z,443.3
2023-02-06T09:58:57.708Z,443.7
2023-02-06T09:59:59.783Z,443.2
2023-02-06T10:01:02.344Z,443.6
2023-02-06T10:02:04.911Z,443.3
2023-02-06T10:03:07.529Z,443.9
2023-02-06T10:04:10.795Z,443.9
2023-02-06T10:05:13.041Z,444.1
2023-02-06T10:06:15.569Z,444.8
2023-02-06T10:07:18.109Z,445.5
2023-02-06T10:08:20.608Z,445.7
2023-02-06T10:09:22.896Z,445.6
2023-02-06T10:10:25.392Z,445.5
2023-02-06T10:11:27.421Z,445.5
2023-02-06T10:12:29.960Z,445.1
2023-02-06T10:13:32.259Z,445.3
2023-02-06T10:14:34.478Z,445.6
2023-02-06T10:15:38.689Z,445.5
2023-02-06T10:16:41.005Z,445.8
2023-02-06T10:17:43.291Z,445.9
2023-02-06T10:18:45.943Z,445.4
2023-02-06T10:19:48.454Z,445.2
2023-02-06T10:20:50.392Z,445.7
2023-02-06T10:21:52.998Z,445.8
2023-02-06T10:22:55.213Z,446.2
2023-02-06T10:23:57.450Z,445.6
2023-02-06T10:24:59.752Z,445.8
2023-02-06T10:26:02.293Z,445.8
2023-02-06T10:27:04.571Z,445.7
2023-02-06T10:28:07.219Z,445.8
2023-02-06T10:29:09.491Z,446
2023-02-06T10:30:12.024Z,446.2
2023-02-06T10:31:14.922Z,446.4
2023-02-06T10:32:17.459Z,446.5
2023-02-06T10:34:24.819Z,446.8
2023-02-06T10:35:27.312Z,446.8
2023-02-06T10:36:29.559Z,447
2023-02-06T10:37:31.583Z,447.4
2023-02-06T10:38:34.087Z,446.7
2023-02-06T10:39:36.318Z,447.3
2023-02-06T10:40:38.859Z,448
2023-02-06T10:41:41.495Z,447.8
2023-02-06T10:42:43.429Z,448.5
2023-02-06T10:43:46.095Z,448.5
2023-02-06T10:45:53.315Z,449.1
2023-02-06T10:46:55.875Z,449
2023-02-06T10:47:58.182Z,449.5
2023-02-06T10:49:00.168Z,449.4
2023-02-06T10:50:02.966Z,449.6
2023-02-06T10:51:05.527Z,449.7
2023-02-06T10:52:08.062Z,450.2
2023-02-06T10:53:10.292Z,450.4
2023-02-06T10:54:12.513Z,450.4
2023-02-06T10:55:14.754Z,451.1
2023-02-06T10:56:16.986Z,451.1
2023-02-06T10:57:19.495Z,451
2023-02-06T10:58:21.433Z,450.6
2023-02-06T10:59:24.058Z,450.7
2023-02-06T11:00:26.622Z,450.5
2023-02-06T11:01:29.554Z,450.7
2023-02-06T11:02:32.054Z,451.1
2023-02-06T11:03:34.618Z,451.2
2023-02-06T11:04:37.125Z,451.8
2023-02-06T11:05:41.565Z,452.1
2023-02-06T11:06:43.601Z,451.9
2023-02-06T11:07:46.188Z,452.2
2023-02-06T11:08:48.601Z,452.3
2023-02-06T11:09:51.241Z,452.4
2023-02-06T11:10:53.474Z,452.9
2023-02-06T11:11:55.447Z,452.4
2023-02-06T11:12:57.953Z,453.1
2023-02-06T11:14:00.447Z,452.8
2023-02-06T11:15:02.757Z,452.6
2023-02-06T11:16:04.994Z,452.6
2023-02-06T11:17:07.656Z,453.1
2023-02-06T11:18:10.174Z,453
2023-02-06T11:19:12.745Z,453.5
2023-02-06T11:20:14.733Z,453.6
2023-02-06T11:21:17.551Z,453.8
2023-02-06T11:22:19.779Z,453.8
2023-02-06T11:23:22.055Z,454.1
2023-02-06T11:24:24.385Z,453.9
2023-02-06T11:25:26.328Z,454.2
2023-02-06T11:26:28.550Z,454.6
2023-02-06T11:27:31.078Z,454.8
2023-02-06T11:28:33.305Z,455.2
2023-02-06T11:29:35.525Z,454.7
2023-02-06T11:30:40.433Z,454.9
2023-02-06T11:31:45.014Z,454.9
2023-02-06T11:33:51.974Z,454.8
2023-02-06T11:34:54.207Z,455.1
2023-02-06T11:35:56.737Z,455.7
2023-02-06T11:36:59.350Z,455.1
2023-02-06T11:38:02.567Z,456.1
2023-02-06T11:39:05.377Z,456.2
2023-02-06T11:40:07.617Z,456.3
2023-02-06T11:41:10.136Z,456.5
2023-02-06T11:42:12.405Z,456.4
2023-02-06T11:43:14.381Z,456
2023-02-06T11:44:16.661Z,456.5
2023-02-06T11:45:18.908Z,456.6
2023-02-06T11:46:21.677Z,456.9
2023-02-06T11:47:23.698Z,456.7
2023-02-06T11:48:25.967Z,457.4
2023-02-06T11:49:27.936Z,457.4
2023-02-06T11:50:30.207Z,457.3
2023-02-06T11:51:32.449Z,457.7
2023-02-06T11:52:35.112Z,457.7
2023-02-06T11:53:37.652Z,457.4
2023-02-06T11:54:39.914Z,457.5
2023-02-06T11:55:42.443Z,457
2023-02-06T11:56:44.975Z,457.1
2023-02-06T11:57:47.485Z,457.1
2023-02-06T11:58:49.990Z,457.3
2023-02-06T11:59:52.555Z,457.3
2023-02-06T12:00:54.538Z,457.5
2023-02-06T12:01:57.435Z,457.7
2023-02-06T12:02:59.712Z,458.2
2023-02-06T12:04:02.265Z,458.1
2023-02-06T12:05:04.513Z,458.5
2023-02-06T12:06:07.040Z,458.5
2023-02-06T12:07:09.563Z,458.7
2023-02-06T12:08:11.982Z,458.6
2023-02-06T12:09:14.500Z,458.7
2023-02-06T12:10:16.479Z,458.7
2023-02-06T12:11:19.004Z,458.7
2023-02-06T12:12:21.565Z,458.5
2023-02-06T12:13:23.792Z,458.8
2023-02-06T12:14:26.013Z,459.1
2023-02-06T12:16:33.209Z,458.8
2023-02-06T12:17:35.480Z,459.1
2023-02-06T12:18:37.410Z,459
2023-02-06T12:19:39.930Z,459
2023-02-06T12:20:42.447Z,459.1
2023-02-06T12:21:44.958Z,458.5
2023-02-06T12:22:47.214Z,458.1
2023-02-06T12:23:49.898Z,457.7
2023-02-06T12:24:52.398Z,457.4
2023-02-06T12:25:54.911Z,456.9
2023-02-06T12:26:57.163Z,457.3
2023-02-06T12:27:59.461Z,457.1
2023-02-06T12:29:02.028Z,457.2
2023-02-06T12:30:04.281Z,457.3
2023-02-06T12:31:07.336Z,457.4
2023-02-06T12:32:09.893Z,457.9
2023-02-06T12:33:12.434Z,457.5
2023-02-06T12:34:14.666Z,457.8
2023-02-06T12:35:16.396Z,458
2023-02-06T12:36:18.474Z,458
2023-02-06T12:37:20.720Z,458.1
2023-02-06T12:38:23.320Z,458.4
2023-02-06T12:39:25.757Z,458.1
2023-02-06T12:40:28.437Z,458.7
2023-02-06T12:41:30.461Z,459.4
2023-02-06T12:42:32.752Z,459.5
2023-02-06T12:43:34.727Z,460.1
2023-02-06T12:44:36.460Z,460.6
2023-02-06T12:45:40.425Z,461.2
2023-02-06T12:46:42.668Z,461.2
2023-02-06T12:47:44.603Z,461.6
2023-02-06T12:48:47.178Z,461.5
2023-02-06T12:49:49.710Z,461.7
2023-02-06T12:50:51.946Z,462.3
2023-02-06T12:51:54.177Z,462.8
2023-02-06T12:52:56.712Z,462.9
2023-02-06T12:53:58.955Z,463.4
2023-02-06T12:55:01.709Z,463.2
2023-02-06T12:56:04.250Z,463.1
2023-02-06T12:57:06.537Z,463.7
2023-02-06T12:58:08.767Z,463.4
2023-02-06T12:59:11.281Z,463.8
2023-02-06T13:00:13.863Z,463.6
2023-02-06T13:02:22.170Z,464
2023-02-06T13:03:24.719Z,463.8
2023-02-06T13:04:26.974Z,464.2
2023-02-06T13:05:29.236Z,463.8
2023-02-06T13:06:31.764Z,463.8
2023-02-06T13:08:39.441Z,464.2
2023-02-06T13:09:43.304Z,463.8
2023-02-06T13:10:45.945Z,464
2023-02-06T13:11:48.463Z,464
2023-02-06T13:12:50.682Z,464
2023-02-06T13:13:52.607Z,463.9
2023-02-06T13:14:55.159Z,463.6
2023-02-06T13:15:57.906Z,464
2023-02-06T13:17:00.502Z,464.1
2023-02-06T13:18:02.736Z,464.2
2023-02-06T13:19:05.712Z,463.9
2023-02-06T13:20:08.313Z,464
2023-02-06T13:21:10.831Z,463.8
2023-02-06T13:22:13.449Z,463.2
2023-02-06T13:23:15.725Z,462.9
2023-02-06T13:24:18.023Z,462.9
2023-02-06T13:25:21.369Z,462.7
2023-02-06T13:26:24.044Z,462.8
2023-02-06T13:27:26.041Z,462.9
2023-02-06T13:28:28.006Z,462.7
2023-02-06T13:29:30.258Z,462.8
2023-02-06T13:30:33.408Z,462.8
2023-02-06T13:31:36.392Z,462.6
2023-02-06T13:32:42.247Z,462.6
2023-02-06T13:33:44.563Z,462.3
2023-02-06T13:34:46.818Z,463
2023-02-06T13:35:49.352Z,462.3
2023-02-06T13:36:51.645Z,461.9
2023-02-06T13:37:54.157Z,461.8
2023-02-06T13:38:56.666Z,461.8
2023-02-06T13:39:58.904Z,461.9
2023-02-06T13:41:00.867Z,461.7